Time;durP1;ratioP1;P1;durP2;ratioP2;P2;SDS_P1;SDS_P2;PMS_P1;PMS_P2;Temp;Humidity;BMP_temperature;BMP_pressure;BME280_temperature;BME280_humidity;BME280_pressure;Samples;Min_cycle;Max_cycle;Signal;HPM_P1;HPM_P2
2021/03/27 00:01:47;;;;;;;49.03;30.23;;;;;;;6.58;59.88;100889.78;1692320;84;26394;-79
2021/03/27 00:04:22;;;;;;;54.40;32.67;;;;;;;6.58;59.96;100893.68;1689371;83;25935;-78
2021/03/27 00:07:22;;;;;;;52.20;29.85;;;;;;;6.59;59.96;100888.34;1687414;83;25618;-79
2021/03/27 00:10:10;;;;;;;49.85;30.75;;;;;;;6.58;59.94;100888.00;1715073;81;26286;-79
2021/03/27 00:13:08;;;;;;;46.10;28.90;;;;;;;6.56;59.98;100882.11;1750257;80;25855;-78
2021/03/27 00:15:39;;;;;;;49.90;30.10;;;;;;;6.57;60.01;100880.33;1747715;80;25879;-78
2021/03/27 00:18:23;;;;;;;48.95;31.27;;;;;;;6.52;60.03;100872.09;1747862;81;25800;-78
2021/03/27 00:21:02;;;;;;;47.75;29.92;;;;;;;6.51;60.12;100876.46;1731183;81;25717;-79
2021/03/27 00:23:49;;;;;;;46.83;30.00;;;;;;;6.52;60.17;100879.42;1747909;81;25723;-79
2021/03/27 00:26:24;;;;;;;48.70;29.67;;;;;;;6.50;60.19;100868.33;1747766;81;25787;-78
2021/03/27 00:29:14;;;;;;;55.55;31.33;;;;;;;6.49;60.27;100861.47;1749238;81;26732;-78
2021/03/27 00:31:48;;;;;;;50.05;30.72;;;;;;;6.49;60.31;100861.95;1753327;81;25792;-79
2021/03/27 00:34:19;;;;;;;48.63;29.87;;;;;;;6.47;60.37;100856.91;1750571;80;25741;-78
2021/03/27 00:36:56;;;;;;;44.93;28.85;;;;;;;6.47;60.38;100854.78;1748122;81;25741;-78
2021/03/27 00:39:42;;;;;;;44.33;28.38;;;;;;;6.45;60.40;100851.00;1748537;81;25698;-78
2021/03/27 00:42:26;;;;;;;49.18;28.52;;;;;;;6.43;60.49;100859.39;1749199;81;25820;-78
2021/03/27 00:45:01;;;;;;;44.70;28.23;;;;;;;6.44;60.54;100860.58;1749504;80;25710;-79
2021/03/27 00:47:32;;;;;;;46.02;27.62;;;;;;;6.43;60.63;100856.31;1747583;80;25756;-78
2021/03/27 00:50:07;;;;;;;40.67;26.02;;;;;;;6.43;60.62;100860.20;1750299;80;25746;-78
2021/03/27 00:52:42;;;;;;;48.70;29.07;;;;;;;6.43;60.64;100864.09;1756833;78;25759;-79
2021/03/27 00:55:26;;;;;;;44.25;26.75;;;;;;;6.43;60.65;100849.82;1784163;78;26510;-79
2021/03/27 00:58:01;;;;;;;43.15;26.80;;;;;;;6.46;60.72;100848.75;1785708;78;25744;-79
2021/03/27 01:00:47;;;;;;;39.10;25.68;;;;;;;6.45;60.79;100842.73;1785086;78;25906;-79
2021/03/27 01:03:29;;;;;;;50.90;27.30;;;;;;;6.45;60.81;100840.14;1770465;80;25765;-79
2021/03/27 01:06:19;;;;;;;48.40;27.65;;;;;;;6.44;60.91;100829.41;1767220;80;25710;-79
2021/03/27 01:08:58;;;;;;;44.30;27.62;;;;;;;6.41;61.37;100830.13;1770543;80;26750;-79
2021/03/27 01:11:37;;;;;;;44.65;26.97;;;;;;;6.38;61.84;100837.72;1736045;81;25914;-78
2021/03/27 01:14:13;;;;;;;46.55;27.62;;;;;;;6.35;62.11;100834.53;1722228;81;26082;-78
2021/03/27 01:16:50;;;;;;;46.95;26.57;;;;;;;6.33;62.28;100828.19;1719922;81;25793;-79
2021/03/27 01:19:25;;;;;;;46.18;27.22;;;;;;;6.33;62.51;100830.78;1725682;81;26025;-79
2021/03/27 01:21:54;;;;;;;42.95;26.15;;;;;;;6.32;62.54;100827.81;1729286;81;25781;-79
2021/03/27 01:24:26;;;;;;;38.23;24.93;;;;;;;6.32;62.71;100830.41;1730116;81;25699;-79
2021/03/27 01:26:58;;;;;;;37.03;24.70;;;;;;;6.34;62.70;100827.22;1724770;81;25855;-79
2021/03/27 01:29:35;;;;;;;41.40;25.80;;;;;;;6.36;62.79;100831.82;1731636;81;25749;-79
2021/03/27 01:32:13;;;;;;;38.08;23.60;;;;;;;6.39;62.81;100832.05;1732896;81;25790;-78
2021/03/27 01:35:06;;;;;;;40.75;25.55;;;;;;;6.40;62.86;100835.80;1732529;81;25608;-79
2021/03/27 01:37:56;;;;;;;39.40;25.15;;;;;;;6.42;62.93;100824.81;1723056;81;25867;-77
2021/03/27 01:40:37;;;;;;;44.50;26.27;;;;;;;6.46;62.97;100820.19;1729561;81;31063;-75
2021/03/27 01:43:24;;;;;;;42.78;25.17;;;;;;;6.49;63.13;100801.75;1725998;81;26012;-76
2021/03/27 01:46:34;;;;;;;40.83;25.25;;;;;;;6.51;63.30;100797.27;1724193;81;25998;-75
2021/03/27 01:49:26;;;;;;;42.70;26.25;;;;;;;6.51;63.62;100793.84;1758358;78;25717;-75
2021/03/27 01:52:07;;;;;;;41.85;24.87;;;;;;;6.49;63.93;100790.06;1787052;79;25363;-75
2021/03/27 01:55:10;;;;;;;43.50;26.60;;;;;;;6.44;64.24;100787.05;1744937;81;26444;-74
2021/03/27 01:58:22;;;;;;;35.68;23.18;;;;;;;6.40;64.52;100783.87;1723991;82;25970;-75
2021/03/27 02:00:53;;;;;;;40.08;25.05;;;;;;;6.36;64.78;100787.69;1723471;82;26688;-75
2021/03/27 02:03:42;;;;;;;39.92;25.88;;;;;;;6.32;64.94;100787.58;1718950;81;25654;-75
2021/03/27 02:06:32;;;;;;;43.23;25.30;;;;;;;6.28;65.06;100782.30;1723725;81;26033;-75
2021/03/27 02:09:10;;;;;;;;;;;;;;;6.21;65.25;100783.75;1726874;81;26153;-75
2021/03/27 02:12:14;;;;;;;40.20;24.27;;;;;;;6.22;65.34;100784.94;1725209;81;25769;-75
2021/03/27 02:15:12;;;;;;;40.10;23.38;;;;;;;6.22;65.38;100787.53;1723858;81;25773;-75
2021/03/27 02:17:55;;;;;;;36.65;23.85;;;;;;;6.27;65.35;100792.80;1724028;82;25634;-75
2021/03/27 02:20:57;;;;;;;39.18;23.52;;;;;;;6.31;65.26;100792.91;1724280;81;25828;-75
2021/03/27 02:24:00;;;;;;;38.13;25.00;;;;;;;6.32;65.13;100790.17;1723810;82;25872;-75
2021/03/27 02:27:02;;;;;;;38.23;23.83;;;;;;;6.39;65.05;100792.63;1723991;82;25790;-75
2021/03/27 02:30:01;;;;;;;36.83;23.32;;;;;;;6.38;64.86;100800.07;1724552;81;26063;-75
2021/03/27 02:33:02;;;;;;;34.30;23.55;;;;;;;6.39;64.85;100793.10;1700678;82;25970;-74
2021/03/27 02:36:08;;;;;;;37.35;24.00;;;;;;;6.37;64.74;100786.72;1722312;80;25288;-75
2021/03/27 02:39:00;;;;;;;37.83;24.37;;;;;;;6.34;64.77;100784.38;1741789;80;25750;-74
2021/03/27 02:41:50;;;;;;;39.58;24.60;;;;;;;6.31;64.73;100779.94;1740411;80;26334;-74
2021/03/27 02:44:34;;;;;;;38.40;26.23;;;;;;;6.26;64.76;100782.90;1741295;80;25771;-75
2021/03/27 02:47:36;;;;;;;43.48;25.92;;;;;;;6.20;64.80;100779.04;1739931;80;25863;-75
2021/03/27 02:50:40;;;;;;;39.75;26.05;;;;;;;6.16;64.75;100776.81;1742950;80;26590;-75
2021/03/27 02:53:47;;;;;;;43.15;28.87;;;;;;;6.10;64.82;100770.36;1746270;80;25745;-75
2021/03/27 02:56:24;;;;;;;45.73;27.35;;;;;;;6.06;64.86;100770.27;1756185;79;25864;-75
2021/03/27 02:59:32;;;;;;;47.65;30.72;;;;;;;6.01;64.98;100772.41;1747819;79;25880;-75
2021/03/27 03:02:22;;;;;;;47.03;29.00;;;;;;;5.97;65.06;100774.45;1759385;79;25875;-74
2021/03/27 03:05:10;;;;;;;51.08;30.32;;;;;;;5.94;65.16;100776.45;1761430;79;26528;-74
2021/03/27 03:08:13;;;;;;;49.48;30.68;;;;;;;5.91;65.27;100762.40;1761084;79;25917;-74
2021/03/27 03:10:50;;;;;;;50.23;31.77;;;;;;;5.89;65.26;100763.84;1761091;79;25863;-75
2021/03/27 03:13:27;;;;;;;54.05;31.20;;;;;;;5.84;65.42;100765.13;1776390;78;25741;-75
2021/03/27 03:16:15;;;;;;;54.23;32.85;;;;;;;5.83;65.57;100761.72;1784279;78;25849;-75
2021/03/27 03:18:58;;;;;;;54.18;32.83;;;;;;;5.84;65.60;100760.80;1784857;78;25792;-75
2021/03/27 03:21:39;;;;;;;50.55;32.17;;;;;;;5.83;65.66;100760.42;1783147;78;25757;-75
2021/03/27 03:24:20;;;;;;;50.23;32.03;;;;;;;5.84;65.73;100754.30;1785423;79;25736;-76
2021/03/27 03:27:11;;;;;;;53.58;33.48;;;;;;;5.85;65.72;100755.94;1782994;78;25778;-75
2021/03/27 03:30:20;;;;;;;54.42;34.85;;;;;;;5.86;65.80;100753.69;1697392;82;25849;-75
2021/03/27 03:33:09;;;;;;;55.03;34.35;;;;;;;5.88;65.79;100749.20;1669792;84;25778;-75
2021/03/27 03:36:05;;;;;;;53.92;34.65;;;;;;;5.88;65.81;100740.12;1670520;83;25771;-74
2021/03/27 03:38:45;;;;;;;60.80;36.65;;;;;;;5.83;65.85;100738.37;1662142;84;25391;-75
2021/03/27 03:41:38;;;;;;;61.10;37.80;;;;;;;5.83;65.92;100738.85;1676319;82;26059;-75
2021/03/27 03:44:52;;;;;;;60.73;38.23;;;;;;;5.78;66.03;100739.22;1680913;82;26405;-75
2021/03/27 03:47:39;;;;;;;58.85;37.73;;;;;;;5.76;66.11;100735.47;1694573;83;25822;-75
2021/03/27 03:50:30;;;;;;;60.78;38.28;;;;;;;5.73;66.23;100727.12;1696115;83;25815;-76
2021/03/27 03:53:34;;;;;;;64.17;38.95;;;;;;;5.69;66.28;100729.59;1688280;83;26002;-76
2021/03/27 03:56:42;;;;;;;65.30;39.48;;;;;;;5.67;66.39;100727.12;1663368;84;25803;-74
2021/03/27 04:00:06;;;;;;;59.38;38.25;;;;;;;5.64;66.47;100728.66;1650515;84;26044;-74
2021/03/27 04:03:02;;;;;;;61.50;38.30;;;;;;;5.59;66.55;100723.50;1646099;85;25750;-75
2021/03/27 04:05:40;;;;;;;61.42;37.28;;;;;;;5.56;66.62;100705.97;1691575;81;25786;-75
2021/03/27 04:08:15;;;;;;;61.50;38.15;;;;;;;5.58;66.74;100703.72;1727290;81;25770;-75
2021/03/27 04:10:42;;;;;;;67.27;39.23;;;;;;;5.60;66.81;100705.72;1712878;82;25980;-75
2021/03/27 04:13:17;;;;;;;59.55;38.48;;;;;;;5.58;66.83;100708.91;1708956;82;25804;-75
2021/03/27 04:16:04;;;;;;;66.85;39.48;;;;;;;5.58;66.93;100723.16;1728486;81;25807;-75
2021/03/27 04:18:47;;;;;;;65.12;41.05;;;;;;;5.58;66.92;100721.87;1730908;81;25268;-75
2021/03/27 04:21:31;;;;;;;67.30;42.00;;;;;;;5.58;66.88;100720.58;1729475;81;26452;-75
2021/03/27 04:24:06;;;;;;;69.37;40.60;;;;;;;5.58;67.02;100722.69;1731689;81;26649;-75
2021/03/27 04:26:52;;;;;;;64.80;40.23;;;;;;;5.55;67.02;100722.94;1729513;81;25742;-75
2021/03/27 04:30:04;;;;;;;69.40;41.92;;;;;;;5.58;66.98;100720.58;1698050;82;25403;-74
2021/03/27 04:32:42;;;;;;;67.37;39.98;;;;;;;5.58;66.98;100724.47;1722936;81;25874;-74
2021/03/27 04:35:21;;;;;;;67.82;42.53;;;;;;;5.60;67.03;100740.25;1722173;81;26244;-75
2021/03/27 04:38:28;;;;;;;66.10;41.53;;;;;;;5.60;67.04;100742.02;1721597;82;25884;-75
2021/03/27 04:41:09;;;;;;;66.20;42.48;;;;;;;5.62;67.10;100731.03;1699139;82;25657;-75
2021/03/27 04:43:45;;;;;;;68.15;41.75;;;;;;;5.63;67.12;100728.81;1718785;82;25815;-75
2021/03/27 04:46:23;;;;;;;74.03;43.65;;;;;;;5.65;67.14;100725.14;1719521;82;26468;-75
2021/03/27 04:49:13;;;;;;;69.82;43.90;;;;;;;5.66;67.12;100722.08;1725813;81;25710;-74
2021/03/27 04:52:16;;;;;;;68.53;43.17;;;;;;;5.67;67.22;100716.74;1729625;82;26436;-75
2021/03/27 04:55:00;;;;;;;70.52;41.25;;;;;;;5.70;67.25;100715.23;1741480;81;25860;-74
2021/03/27 04:57:44;;;;;;;73.45;41.92;;;;;;;5.72;67.25;100702.12;1755082;80;26071;-74
2021/03/27 05:00:31;;;;;;;67.70;41.28;;;;;;;5.77;67.30;100704.69;1759332;78;25704;-74
2021/03/27 05:03:30;;;;;;;61.20;38.40;;;;;;;5.80;67.37;100721.77;1785672;78;25998;-75
2021/03/27 05:06:14;;;;;;;69.53;41.15;;;;;;;5.78;67.30;100736.17;1781964;78;25766;-76
2021/03/27 05:09:05;;;;;;;66.90;42.15;;;;;;;5.81;67.34;100726.03;1783535;78;26363;-75
2021/03/27 05:11:57;;;;;;;66.33;42.17;;;;;;;5.91;67.40;100718.30;1783855;78;25712;-75
2021/03/27 05:14:55;;;;;;;73.00;44.42;;;;;;;5.95;67.41;100714.55;1783280;78;26250;-75
2021/03/27 05:17:48;;;;;;;73.22;43.28;;;;;;;5.98;67.39;100711.70;1784375;78;25425;-75
2021/03/27 05:20:31;;;;;;;72.72;46.02;;;;;;;5.95;67.44;100704.99;1753078;80;25805;-75
2021/03/27 05:23:14;;;;;;;74.80;46.90;;;;;;;5.96;67.50;100702.73;1728104;80;25888;-75
2021/03/27 05:25:49;;;;;;;76.02;45.80;;;;;;;5.95;67.67;100699.80;1751367;80;25765;-75
2021/03/27 05:28:49;;;;;;;72.25;44.05;;;;;;;5.94;67.62;100690.83;1754071;80;25931;-75
2021/03/27 05:31:44;;;;;;;73.62;44.50;;;;;;;5.95;67.72;100700.28;1753911;80;25327;-75
2021/03/27 05:34:40;;;;;;;70.22;45.43;;;;;;;5.95;67.79;100691.20;1753494;80;27181;-75
2021/03/27 05:37:40;;;;;;;70.75;45.98;;;;;;;5.93;67.88;100682.23;1754555;80;25793;-74
2021/03/27 05:40:47;;;;;;;76.87;45.60;;;;;;;5.96;68.02;100694.13;1755427;80;25714;-75
2021/03/27 05:43:46;;;;;;;75.92;45.23;;;;;;;5.94;68.19;100709.81;1756594;80;25864;-75
2021/03/27 05:46:39;;;;;;;77.90;46.50;;;;;;;5.94;68.36;100709.81;1754047;80;25812;-75
2021/03/27 05:49:33;;;;;;;75.55;44.58;;;;;;;5.99;68.54;100712.03;1753384;80;25803;-73
2021/03/27 05:52:17;;;;;;;78.90;48.42;;;;;;;6.01;68.50;100711.44;1778185;78;25831;-78
2021/03/27 05:55:40;;;;;;;76.42;46.80;;;;;;;6.04;68.59;100706.47;1779198;78;25855;-79
2021/03/27 05:58:39;;;;;;;74.70;46.00;;;;;;;6.07;68.60;100704.92;1689289;83;26167;-79
2021/03/27 06:01:42;;;;;;;73.75;46.68;;;;;;;6.07;68.76;100706.22;1689672;83;25964;-79
2021/03/27 06:04:49;;;;;;;78.92;47.20;;;;;;;6.07;68.90;100704.44;1673587;83;25898;-79
2021/03/27 06:07:50;;;;;;;77.25;46.23;;;;;;;6.12;68.90;100706.18;1659491;84;26647;-79
2021/03/27 06:10:39;;;;;;;75.25;47.13;;;;;;;6.16;69.06;100702.84;1662744;84;25887;-79
2021/03/27 06:13:47;;;;;;;76.70;47.03;;;;;;;6.19;69.01;100694.35;1681949;83;25882;-79
2021/03/27 06:16:35;;;;;;;77.08;46.85;;;;;;;6.26;69.14;100692.05;1677796;83;25984;-78
2021/03/27 06:19:24;;;;;;;77.87;46.05;;;;;;;6.34;69.27;100688.33;1690306;83;25889;-79
2021/03/27 06:22:30;;;;;;;84.95;49.60;;;;;;;6.39;69.20;100691.37;1689454;83;25848;-79
2021/03/27 06:25:04;;;;;;;76.75;48.38;;;;;;;6.44;69.19;100684.02;1690934;83;25854;-79
2021/03/27 06:28:28;;;;;;;79.22;49.23;;;;;;;6.50;69.18;100680.08;1689721;83;25955;-78
2021/03/27 06:31:18;;;;;;;83.62;51.33;;;;;;;6.54;69.19;100678.84;1772579;79;25864;-78
2021/03/27 06:34:00;;;;;;;78.80;49.05;;;;;;;6.59;69.20;100673.27;1771367;79;25813;-79
2021/03/27 06:36:38;;;;;;;80.32;50.33;;;;;;;6.61;69.22;100675.27;1769448;79;25891;-78
2021/03/27 06:39:29;;;;;;;83.85;49.98;;;;;;;6.63;69.14;100681.16;1767333;79;26233;-78
2021/03/27 06:42:13;;;;;;;81.35;50.98;;;;;;;6.64;69.16;100677.59;1769413;79;25789;-79
2021/03/27 06:45:15;;;;;;;81.35;50.28;;;;;;;6.64;69.07;100666.72;1770302;79;25959;-78
2021/03/27 06:47:53;;;;;;;80.47;50.65;;;;;;;6.66;69.11;100670.50;1770013;79;25801;-78
2021/03/27 06:51:00;;;;;;;81.65;51.42;;;;;;;6.65;69.04;100667.05;1768094;79;25951;-78
2021/03/27 06:54:02;;;;;;;87.33;50.12;;;;;;;6.69;69.06;100653.83;1769046;79;25805;-80
2021/03/27 06:56:46;;;;;;;82.25;51.00;;;;;;;6.73;69.11;100657.31;1782738;78;25695;-79
2021/03/27 06:59:50;;;;;;;84.00;50.33;;;;;;;6.74;69.16;100665.47;1784363;78;25729;-80
2021/03/27 07:02:54;;;;;;;80.28;47.80;;;;;;;6.78;69.22;100659.52;1772192;78;25782;-77
2021/03/27 07:05:48;;;;;;;79.97;50.10;;;;;;;6.86;69.22;100663.09;1783330;78;25755;-79
2021/03/27 07:08:57;;;;;;;88.00;52.48;;;;;;;6.92;69.27;100666.93;1782030;78;25590;-80
2021/03/27 07:11:47;;;;;;;87.25;52.85;;;;;;;7.01;69.20;100666.59;1782046;78;25918;-78
2021/03/27 07:14:54;;;;;;;80.10;49.42;;;;;;;7.09;69.18;100669.34;1786097;78;25379;-78
2021/03/27 07:17:31;;;;;;;79.05;50.58;;;;;;;7.18;69.15;100661.24;1783757;78;25761;-80
2021/03/27 07:20:31;;;;;;;86.85;52.62;;;;;;;7.27;69.12;100659.93;1783403;80;25995;-79
2021/03/27 07:23:25;;;;;;;84.83;53.13;;;;;;;7.36;69.05;100656.17;1780528;78;25712;-80
2021/03/27 07:26:11;;;;;;;91.45;54.27;;;;;;;7.45;69.07;100655.38;1781336;78;25875;-78
2021/03/27 07:29:04;;;;;;;76.40;50.70;;;;;;;7.54;68.99;100655.84;1781206;78;25782;-78
2021/03/27 07:31:53;;;;;;;86.10;52.48;;;;;;;7.63;68.96;100654.17;1781713;78;25736;-79
2021/03/27 07:34:57;;;;;;;78.07;50.83;;;;;;;7.69;68.84;100655.77;1782091;78;25690;-79
2021/03/27 07:38:03;;;;;;;82.67;50.75;;;;;;;7.76;68.81;100654.23;1783167;78;25911;-80
2021/03/27 07:41:15;;;;;;;82.10;50.05;;;;;;;7.85;68.80;100651.27;1783140;78;25804;-81
2021/03/27 07:44:25;;;;;;;82.22;50.48;;;;;;;7.95;68.73;100650.77;1783920;78;25317;-81
2021/03/27 07:47:31;;;;;;;109.87;68.60;;;;;;;8.06;68.61;100625.05;1786023;78;25822;-79
2021/03/27 07:50:35;;;;;;;77.58;52.13;;;;;;;8.06;68.61;100625.05;1784198;78;25762;-77
2021/03/27 07:53:48;;;;;;;87.35;53.85;;;;;;;8.32;68.68;100637.42;1786102;78;25836;-76
2021/03/27 07:56:25;;;;;;;99.40;63.90;;;;;;;8.47;68.62;100633.91;1782300;78;25821;-78
2021/03/27 07:59:28;;;;;;;107.63;64.72;;;;;;;8.63;68.59;100627.59;1782591;78;25865;-77
2021/03/27 08:02:21;;;;;;;89.87;59.05;;;;;;;8.78;68.54;100629.20;1778933;78;25859;-77
2021/03/27 08:05:31;;;;;;;97.80;68.02;;;;;;;8.92;68.42;100623.50;1763029;80;26635;-77
2021/03/27 08:08:30;;;;;;;84.35;56.58;;;;;;;9.04;68.39;100626.70;1755654;79;25780;-77
2021/03/27 08:11:14;;;;;;;85.47;53.30;;;;;;;9.21;68.44;100627.67;1756322;80;25721;-77
2021/03/27 08:14:25;;;;;;;75.45;50.75;;;;;;;9.40;68.32;100622.30;1768235;80;25826;-78
2021/03/27 08:17:06;;;;;;;72.70;48.35;;;;;;;9.59;68.16;100618.69;1756945;80;25824;-76
2021/03/27 08:20:19;;;;;;;79.45;48.13;;;;;;;9.80;68.01;100624.88;1642186;84;25919;-77
2021/03/27 08:23:26;;;;;;;74.62;48.63;;;;;;;9.96;67.74;100612.41;1632901;85;25825;-76
2021/03/27 08:26:06;;;;;;;76.00;48.28;;;;;;;10.22;67.31;100609.75;1642367;84;25753;-76
2021/03/27 08:29:08;;;;;;;73.37;46.53;;;;;;;10.44;67.13;100612.32;1650666;84;25847;-77
2021/03/27 08:32:02;;;;;;;80.45;49.88;;;;;;;10.66;67.01;100609.61;1634342;85;25760;-78
2021/03/27 08:34:57;;;;;;;69.32;45.92;;;;;;;10.93;66.87;100606.41;1612460;85;26036;-77
2021/03/27 08:37:43;;;;;;;72.90;46.58;;;;;;;11.17;66.66;100608.24;1632572;85;26082;-77
2021/03/27 08:40:23;;;;;;;63.63;43.25;;;;;;;11.39;66.03;100597.61;1641837;85;26615;-76
2021/03/27 08:43:20;;;;;;;;;;;;;;;11.60;65.70;100596.61;1643921;85;25909;-76
2021/03/27 08:46:04;;;;;;;59.18;39.78;;;;;;;11.81;64.75;100597.38;1641846;85;25833;-76
2021/03/27 08:49:03;;;;;;;59.65;38.90;;;;;;;12.03;64.57;100589.36;1641343;85;25807;-76
2021/03/27 08:51:58;;;;;;;57.62;38.48;;;;;;;12.21;64.23;100589.92;1602931;87;25885;-77
2021/03/27 08:54:59;;;;;;;67.03;42.15;;;;;;;12.39;63.72;100584.45;1606714;87;25913;-76
2021/03/27 08:57:36;;;;;;;58.20;41.20;;;;;;;12.58;63.30;100585.02;1652958;84;25824;-76
2021/03/27 09:00:56;;;;;;;59.15;38.53;;;;;;;12.74;62.95;100580.15;1654854;84;25778;-76
2021/03/27 09:03:35;;;;;;;;;;;;;;;12.89;61.98;100575.30;1659132;84;25664;-77
2021/03/27 09:06:32;;;;;;;61.48;39.73;;;;;;;13.06;60.24;100569.43;1656313;84;25901;-77
2021/03/27 09:09:40;;;;;;;56.28;39.78;;;;;;;13.18;60.65;100568.53;1661605;84;25767;-76
2021/03/27 09:12:45;;;;;;;53.35;35.83;;;;;;;13.30;60.98;100569.77;1673809;84;26512;-76
2021/03/27 09:15:20;;;;;;;55.05;36.17;;;;;;;13.47;59.77;100563.86;1671085;84;25787;-76
2021/03/27 09:18:31;;;;;;;52.90;35.33;;;;;;;13.61;59.53;100562.24;1649775;84;26835;-76
2021/03/27 09:21:40;;;;;;;57.48;34.75;;;;;;;13.72;58.78;100554.42;1644459;85;25984;-76
2021/03/27 09:24:44;;;;;;;52.00;34.95;;;;;;;13.85;58.98;100544.59;1654159;84;26420;-77
2021/03/27 09:27:50;;;;;;;51.75;35.50;;;;;;;14.01;58.15;100542.28;1613851;84;26003;-76
2021/03/27 09:30:36;;;;;;;58.23;36.80;;;;;;;14.11;57.94;100534.94;1657938;83;25925;-75
2021/03/27 09:33:22;;;;;;;52.33;32.83;;;;;;;14.23;58.28;100532.14;1661763;83;25937;-76
2021/03/27 09:36:33;;;;;;;46.63;31.45;;;;;;;14.38;55.85;100534.24;1638734;85;25840;-76
2021/03/27 09:39:08;;;;;;;44.00;29.70;;;;;;;14.53;55.98;100530.78;1660678;84;26055;-76
2021/03/27 09:42:15;;;;;;;51.08;31.93;;;;;;;14.64;56.35;100531.09;1646331;83;26884;-77
2021/03/27 09:45:10;;;;;;;52.62;31.95;;;;;;;14.76;56.22;100527.48;1595923;87;25778;-75
2021/03/27 09:48:04;;;;;;;48.45;32.40;;;;;;;14.89;55.03;100533.34;1597445;87;25940;-76
2021/03/27 09:51:11;;;;;;;45.28;31.55;;;;;;;14.98;54.61;100528.79;1621507;86;25846;-76
2021/03/27 09:54:03;;;;;;;43.68;29.00;;;;;;;15.10;54.47;100526.75;1623790;86;25498;-76
2021/03/27 09:56:56;;;;;;;38.10;25.70;;;;;;;15.22;53.36;100515.69;1612428;87;26008;-77
2021/03/27 09:59:31;;;;;;;48.33;25.35;;;;;;;15.35;53.77;100513.66;1691116;83;25788;-76
2021/03/27 10:02:02;;;;;;;47.05;27.27;;;;;;;15.50;53.23;100507.80;1695455;82;25893;-76
2021/03/27 10:04:57;;;;;;;47.70;28.20;;;;;;;15.63;52.12;100503.08;1696326;82;43137;-76
2021/03/27 10:07:35;;;;;;;40.73;25.68;;;;;;;15.70;50.96;100507.41;1692333;82;25854;-76
2021/03/27 10:10:26;;;;;;;40.12;25.70;;;;;;;15.76;49.59;100506.62;1694995;83;25814;-76
2021/03/27 10:13:34;;;;;;;39.33;26.15;;;;;;;15.82;50.18;100504.22;1695818;82;25743;-76
2021/03/27 10:16:02;;;;;;;42.30;24.30;;;;;;;15.87;49.97;100496.55;1691243;83;26507;-75
2021/03/27 10:19:12;;;;;;;36.65;24.25;;;;;;;15.95;49.46;100501.14;1694486;83;25877;-76
2021/03/27 10:22:01;;;;;;;40.17;26.77;;;;;;;16.02;48.75;100501.18;1754697;80;25673;-75
2021/03/27 10:24:47;;;;;;;38.73;25.12;;;;;;;16.09;47.97;100503.31;1733526;81;25833;-75
2021/03/27 10:27:38;;;;;;;38.05;25.68;;;;;;;16.12;46.17;100504.27;1754102;80;25835;-75
2021/03/27 10:30:33;;;;;;;46.28;24.95;;;;;;;16.15;48.35;100498.59;1755224;80;25696;-76
2021/03/27 10:33:24;;;;;;;42.23;24.90;;;;;;;16.27;48.33;100496.70;1753811;80;25870;-75
2021/03/27 10:35:55;;;;;;;40.52;23.95;;;;;;;16.37;47.47;100482.11;1756502;80;25730;-75
2021/03/27 10:38:59;;;;;;;44.77;25.82;;;;;;;16.46;47.90;100483.25;1756671;80;25698;-75
2021/03/27 10:41:43;;;;;;;36.93;24.85;;;;;;;16.57;48.54;100480.01;1756843;80;25985;-76
2021/03/27 10:44:32;;;;;;;41.75;25.40;;;;;;;16.64;45.40;100473.73;1757098;80;25864;-76
2021/03/27 10:47:12;;;;;;;43.10;25.82;;;;;;;16.69;46.35;100468.34;1756945;80;25721;-75
2021/03/27 10:49:50;;;;;;;34.90;23.05;;;;;;;16.76;46.59;100458.09;1757054;80;25823;-76
2021/03/27 10:52:33;;;;;;;36.38;22.95;;;;;;;16.83;45.15;100464.22;1756840;80;25742;-76
2021/03/27 10:55:24;;;;;;;35.48;22.15;;;;;;;16.87;45.75;100452.73;1700181;81;25822;-75
2021/03/27 10:58:29;;;;;;;;;;;;;;;16.91;44.40;100455.77;1702935;83;26697;-76
2021/03/27 11:01:36;;;;;;;40.75;24.87;;;;;;;16.96;44.75;100449.38;1712561;81;25760;-74
2021/03/27 11:04:59;;;;;;;42.08;24.82;;;;;;;16.98;45.26;100436.79;1692856;81;25811;-76
2021/03/27 11:08:15;;;;;;;38.75;23.77;;;;;;;17.08;44.79;100435.87;1726263;81;25888;-76
2021/03/27 11:10:53;;;;;;;38.63;23.73;;;;;;;17.16;43.03;100436.13;1726021;82;25837;-76
2021/03/27 11:14:11;;;;;;;35.38;23.47;;;;;;;17.17;44.76;100433.30;1725785;81;25742;-76
2021/03/27 11:17:08;;;;;;;36.08;24.15;;;;;;;17.23;45.07;100433.78;1725618;81;25964;-76
2021/03/27 11:20:00;;;;;;;36.98;24.82;;;;;;;17.32;44.15;100429.09;1727684;81;25802;-76
2021/03/27 11:23:07;;;;;;;40.78;26.12;;;;;;;17.40;44.41;100430.69;1726939;81;25885;-76
2021/03/27 11:25:44;;;;;;;38.95;25.12;;;;;;;17.42;42.97;100424.70;1725629;81;26038;-76
2021/03/27 11:28:27;;;;;;;43.08;26.50;;;;;;;17.47;44.77;100419.09;1726057;81;25791;-76
2021/03/27 11:31:43;;;;;;;41.55;26.07;;;;;;;17.58;44.24;100427.39;1734241;78;25818;-76
2021/03/27 11:34:30;;;;;;;38.08;25.17;;;;;;;17.64;44.91;100421.27;1786348;78;25839;-76
2021/03/27 11:37:45;;;;;;;37.45;24.07;;;;;;;17.68;43.64;100418.00;1788650;78;25773;-77
2021/03/27 11:40:44;;;;;;;35.15;22.87;;;;;;;17.73;43.29;100419.50;1719866;82;25836;-76
2021/03/27 11:43:27;;;;;;;37.67;24.60;;;;;;;17.81;43.56;100414.49;1720752;81;26263;-75
2021/03/27 11:46:23;;;;;;;33.63;22.45;;;;;;;17.89;43.38;100404.19;1719661;81;25846;-77
2021/03/27 11:48:58;;;;;;;30.45;22.42;;;;;;;17.93;43.20;100402.23;1719996;81;25883;-76
2021/03/27 11:52:01;;;;;;;32.28;20.77;;;;;;;18.02;43.07;100398.02;1716993;82;25316;-76
2021/03/27 11:55:06;;;;;;;30.25;20.85;;;;;;;18.08;42.61;100391.87;1720252;81;25926;-77
2021/03/27 11:57:46;;;;;;;32.90;21.75;;;;;;;18.16;41.81;100396.38;1719478;81;26461;-76
2021/03/27 12:00:50;;;;;;;31.52;20.43;;;;;;;18.20;41.05;100392.81;1720112;81;25956;-77
2021/03/27 12:03:24;;;;;;;27.07;18.62;;;;;;;18.26;42.51;100395.12;1719761;82;25759;-76
2021/03/27 12:05:59;;;;;;;31.07;21.17;;;;;;;18.39;42.41;100389.21;1720137;81;26562;-76
2021/03/27 12:08:58;;;;;;;31.80;20.92;;;;;;;18.50;41.17;100386.37;1719500;81;25719;-76
2021/03/27 12:15:03;;;;;;;30.80;20.92;;;;;;;18.62;41.70;100385.15;1647775;85;25895;-75
2021/03/27 12:17:56;;;;;;;26.15;18.15;;;;;;;18.66;41.07;100395.61;1605048;86;25496;-75
2021/03/27 12:20:43;;;;;;;28.00;19.52;;;;;;;18.66;39.90;100398.27;1632596;86;25872;-75
2021/03/27 12:23:33;;;;;;;32.05;18.82;;;;;;;18.62;40.98;100391.25;1620311;86;25791;-75
2021/03/27 12:26:16;;;;;;;30.60;19.15;;;;;;;18.69;41.41;100388.56;1620849;86;26744;-75
2021/03/27 12:28:50;;;;;;;30.52;20.20;;;;;;;18.74;40.80;100387.88;1613584;86;26041;-76
2021/03/27 12:34:39;;;;;;;31.35;18.80;;;;;;;18.82;40.35;100378.36;1578010;89;25689;-72
2021/03/27 12:37:19;;;;;;;30.23;18.10;;;;;;;18.92;40.19;100366.76;1579525;89;25718;-76
2021/03/27 12:40:28;;;;;;;29.25;18.52;;;;;;;18.94;39.60;100365.23;1578679;88;26238;-76
2021/03/27 12:43:17;;;;;;;27.20;18.40;;;;;;;18.94;39.63;100374.50;1571517;89;25331;-74
2021/03/27 12:46:04;;;;;;;27.13;16.65;;;;;;;18.89;39.67;100373.02;1633506;84;25732;-75
2021/03/27 12:49:08;;;;;;;26.77;19.25;;;;;;;18.95;40.24;100370.81;1702721;82;25784;-75
2021/03/27 12:51:57;;;;;;;26.82;16.85;;;;;;;19.06;39.71;100363.45;1703767;82;25733;-75
2021/03/27 12:54:59;;;;;;;31.90;20.05;;;;;;;19.18;40.10;100369.65;1708173;82;26725;-75
2021/03/27 12:57:41;;;;;;;20.25;12.37;;;;;;;19.31;38.77;100367.34;1727107;81;25958;-75
2021/03/27 13:00:44;;;;;;;19.80;12.07;;;;;;;19.42;37.16;100378.52;1702096;82;25765;-75
2021/03/27 13:03:42;;;;;;;28.62;13.05;;;;;;;19.48;35.73;100376.32;1717665;81;25778;-76
2021/03/27 13:06:55;;;;;;;29.27;20.25;;;;;;;19.49;34.78;100377.93;1677857;84;25806;-76
2021/03/27 13:09:53;;;;;;;32.00;21.27;;;;;;;19.46;34.26;100374.41;1671798;84;25791;-75
2021/03/27 13:12:25;;;;;;;24.35;13.32;;;;;;;19.45;36.21;100371.47;1668310;84;26430;-75